sensor_id;sensor_type;location;lat;lon;timestamp;pressure;altitude;pressure_sealevel;temperature;humidity
21706;BME280;11014;53.076;18.208;2023-05-01T00:01:16;102006.38;;;4.49;56.92
21706;BME280;11014;53.076;18.208;2023-05-01T00:03:44;102012.00;;;4.46;56.74
21706;BME280;11014;53.076;18.208;2023-05-01T00:06:14;102008.00;;;4.42;57.02
21706;BME280;11014;53.076;18.208;2023-05-01T00:08:42;102008.31;;;4.39;56.76
21706;BME280;11014;53.076;18.208;2023-05-01T00:11:10;102011.28;;;4.36;57.15
21706;BME280;11014;53.076;18.208;2023-05-01T00:13:39;102012.44;;;4.34;57.01
21706;BME280;11014;53.076;18.208;2023-05-01T00:16:09;102005.06;;;4.28;56.98
21706;BME280;11014;53.076;18.208;2023-05-01T00:18:38;102002.06;;;4.23;57.22
21706;BME280;11014;53.076;18.208;2023-05-01T00:21:07;102011.19;;;4.20;57.42
21706;BME280;11014;53.076;18.208;2023-05-01T00:23:35;102005.50;;;4.15;57.61
21706;BME280;11014;53.076;18.208;2023-05-01T00:26:04;102006.63;;;4.12;57.67
21706;BME280;11014;53.076;18.208;2023-05-01T00:28:32;102004.13;;;4.11;57.25
21706;BME280;11014;53.076;18.208;2023-05-01T00:31:01;102008.41;;;4.04;57.51
21706;BME280;11014;53.076;18.208;2023-05-01T00:33:29;102005.38;;;3.99;57.46
21706;BME280;11014;53.076;18.208;2023-05-01T00:35:58;102002.00;;;3.97;57.49
21706;BME280;11014;53.076;18.208;2023-05-01T00:38:27;102012.28;;;3.92;57.82
21706;BME280;11014;53.076;18.208;2023-05-01T00:40:55;101997.63;;;3.88;57.56
21706;BME280;11014;53.076;18.208;2023-05-01T00:43:24;102001.56;;;3.84;57.80
21706;BME280;11014;53.076;18.208;2023-05-01T00:45:53;102001.03;;;3.80;58.04
21706;BME280;11014;53.076;18.208;2023-05-01T00:48:21;102001.34;;;3.77;57.99
21706;BME280;11014;53.076;18.208;2023-05-01T00:50:51;101997.31;;;3.73;58.40
21706;BME280;11014;53.076;18.208;2023-05-01T00:53:20;101994.81;;;3.72;58.06
21706;BME280;11014;53.076;18.208;2023-05-01T00:55:49;102004.75;;;3.70;58.11
21706;BME280;11014;53.076;18.208;2023-05-01T00:58:18;101995.28;;;3.67;58.08
21706;BME280;11014;53.076;18.208;2023-05-01T01:00:48;101992.25;;;3.62;58.22
21706;BME280;11014;53.076;18.208;2023-05-01T01:03:16;101998.69;;;3.59;58.35
21706;BME280;11014;53.076;18.208;2023-05-01T01:05:56;101993.69;;;3.56;58.14
21706;BME280;11014;53.076;18.208;2023-05-01T01:08:59;101998.69;;;3.59;58.42
21706;BME280;11014;53.076;18.208;2023-05-01T01:15:21;101993.97;;;3.53;57.79
21706;BME280;11014;53.076;18.208;2023-05-01T01:18:18;101990.66;;;3.51;58.15
21706;BME280;11014;53.076;18.208;2023-05-01T01:21:07;102004.16;;;3.40;57.93
21706;BME280;11014;53.076;18.208;2023-05-01T01:26:46;101995.16;;;3.24;58.39
21706;BME280;11014;53.076;18.208;2023-05-01T01:29:43;101991.69;;;3.23;58.56
21706;BME280;11014;53.076;18.208;2023-05-01T01:32:28;101995.91;;;3.16;58.48
21706;BME280;11014;53.076;18.208;2023-05-01T01:35:13;101992.59;;;3.14;58.60
21706;BME280;11014;53.076;18.208;2023-05-01T01:38:04;101992.88;;;3.11;58.77
21706;BME280;11014;53.076;18.208;2023-05-01T01:40:37;101992.63;;;3.05;58.97
21706;BME280;11014;53.076;18.208;2023-05-01T01:43:07;102000.19;;;2.99;58.98
21706;BME280;11014;53.076;18.208;2023-05-01T01:45:39;101997.69;;;2.98;58.91
21706;BME280;11014;53.076;18.208;2023-05-01T01:48:15;101989.03;;;2.96;59.16
21706;BME280;11014;53.076;18.208;2023-05-01T01:50:45;101995.47;;;2.93;59.28
21706;BME280;11014;53.076;18.208;2023-05-01T01:53:17;101987.38;;;2.95;59.25
21706;BME280;11014;53.076;18.208;2023-05-01T01:55:46;101983.44;;;2.99;59.05
21706;BME280;11014;53.076;18.208;2023-05-01T01:58:17;101985.94;;;3.00;58.86
21706;BME280;11014;53.076;18.208;2023-05-01T02:00:50;101985.41;;;2.97;58.69
21706;BME280;11014;53.076;18.208;2023-05-01T02:03:20;101979.56;;;2.93;58.93
21706;BME280;11014;53.076;18.208;2023-05-01T02:05:51;101982.38;;;2.92;58.94
21706;BME280;11014;53.076;18.208;2023-05-01T02:08:22;101984.31;;;2.90;58.74
21706;BME280;11014;53.076;18.208;2023-05-01T02:10:53;101975.97;;;2.85;59.07
21706;BME280;11014;53.076;18.208;2023-05-01T02:13:30;101972.63;;;2.83;59.11
21706;BME280;11014;53.076;18.208;2023-05-01T02:16:01;101972.06;;;2.79;59.27
21706;BME280;11014;53.076;18.208;2023-05-01T02:18:31;101969.28;;;2.81;59.40
21706;BME280;11014;53.076;18.208;2023-05-01T02:21:02;101964.28;;;2.78;59.49
21706;BME280;11014;53.076;18.208;2023-05-01T02:23:37;101963.59;;;2.76;59.24
21706;BME280;11014;53.076;18.208;2023-05-01T02:26:11;101962.88;;;2.74;59.36
21706;BME280;11014;53.076;18.208;2023-05-01T02:28:41;101954.25;;;2.72;59.31
21706;BME280;11014;53.076;18.208;2023-05-01T02:31:10;101956.22;;;2.70;59.20
21706;BME280;11014;53.076;18.208;2023-05-01T02:33:38;101954.31;;;2.62;59.43
21706;BME280;11014;53.076;18.208;2023-05-01T02:36:07;101950.53;;;2.65;59.28
21706;BME280;11014;53.076;18.208;2023-05-01T02:38:36;101958.47;;;2.65;59.25
21706;BME280;11014;53.076;18.208;2023-05-01T02:41:05;101946.19;;;2.64;59.27
21706;BME280;11014;53.076;18.208;2023-05-01T02:43:36;101940.03;;;2.63;59.42
21706;BME280;11014;53.076;18.208;2023-05-01T02:46:06;101949.28;;;2.59;59.33
21706;BME280;11014;53.076;18.208;2023-05-01T02:48:38;101947.59;;;2.58;59.44
21706;BME280;11014;53.076;18.208;2023-05-01T02:51:08;101947.06;;;2.55;59.16
21706;BME280;11014;53.076;18.208;2023-05-01T02:53:36;101936.72;;;2.52;59.56
21706;BME280;11014;53.076;18.208;2023-05-01T02:56:17;101945.69;;;2.51;59.49
21706;BME280;11014;53.076;18.208;2023-05-01T02:58:49;101935.38;;;2.48;59.26
21706;BME280;11014;53.076;18.208;2023-05-01T03:01:18;101933.22;;;2.61;59.33
21706;BME280;11014;53.076;18.208;2023-05-01T03:03:47;101941.81;;;2.45;58.69
21706;BME280;11014;53.076;18.208;2023-05-01T03:06:17;101935.56;;;2.36;59.02
21706;BME280;11014;53.076;18.208;2023-05-01T03:08:46;101932.22;;;2.34;59.35
21706;BME280;11014;53.076;18.208;2023-05-01T03:11:15;101935.69;;;2.35;59.65
21706;BME280;11014;53.076;18.208;2023-05-01T03:13:43;101930.69;;;2.32;59.53
21706;BME280;11014;53.076;18.208;2023-05-01T03:16:13;101939.34;;;2.34;59.70
21706;BME280;11014;53.076;18.208;2023-05-01T03:18:41;101940.47;;;2.31;59.35
21706;BME280;11014;53.076;18.208;2023-05-01T03:21:10;101941.44;;;2.30;59.47
21706;BME280;11014;53.076;18.208;2023-05-01T03:23:40;101933.47;;;2.30;59.50
21706;BME280;11014;53.076;18.208;2023-05-01T03:26:09;101932.63;;;2.30;59.35
21706;BME280;11014;53.076;18.208;2023-05-01T03:28:37;101929.19;;;2.29;59.82
21706;BME280;11014;53.076;18.208;2023-05-01T03:31:06;101926.53;;;2.29;59.78
21706;BME280;11014;53.076;18.208;2023-05-01T03:33:34;101934.31;;;2.31;59.83
21706;BME280;11014;53.076;18.208;2023-05-01T03:36:04;101929.00;;;2.31;59.86
21706;BME280;11014;53.076;18.208;2023-05-01T03:38:34;101930.69;;;2.32;59.65
21706;BME280;11014;53.076;18.208;2023-05-01T03:41:25;101942.53;;;2.37;59.79
21706;BME280;11014;53.076;18.208;2023-05-01T03:44:12;101939.88;;;2.37;59.59
21706;BME280;11014;53.076;18.208;2023-05-01T03:46:44;101933.59;;;2.38;59.89
21706;BME280;11014;53.076;18.208;2023-05-01T03:49:20;101933.47;;;2.40;59.89
21706;BME280;11014;53.076;18.208;2023-05-01T03:51:50;101939.28;;;2.44;59.75
21706;BME280;11014;53.076;18.208;2023-05-01T03:54:19;101937.34;;;2.46;59.76
21706;BME280;11014;53.076;18.208;2023-05-01T03:56:56;101940.22;;;2.52;59.96
21706;BME280;11014;53.076;18.208;2023-05-01T03:59:25;101943.44;;;2.56;60.20
21706;BME280;11014;53.076;18.208;2023-05-01T04:01:54;101941.47;;;2.58;60.27
21706;BME280;11014;53.076;18.208;2023-05-01T04:04:24;101942.56;;;2.65;60.12
21706;BME280;11014;53.076;18.208;2023-05-01T04:06:57;101939.56;;;2.40;60.52
21706;BME280;11014;53.076;18.208;2023-05-01T04:09:25;101937.94;;;2.30;61.38
21706;BME280;11014;53.076;18.208;2023-05-01T04:11:54;101942.56;;;2.28;61.93
21706;BME280;11014;53.076;18.208;2023-05-01T04:14:23;101939.78;;;2.29;62.07
21706;BME280;11014;53.076;18.208;2023-05-01T04:16:56;101945.19;;;2.37;62.45
21706;BME280;11014;53.076;18.208;2023-05-01T04:19:25;101945.59;;;2.43;62.37
21706;BME280;11014;53.076;18.208;2023-05-01T04:21:58;101942.38;;;2.49;62.80
21706;BME280;11014;53.076;18.208;2023-05-01T04:24:28;101933.78;;;2.55;62.79
21706;BME280;11014;53.076;18.208;2023-05-01T04:26:57;101939.19;;;2.63;62.73
21706;BME280;11014;53.076;18.208;2023-05-01T04:29:25;101935.84;;;2.70;62.89
21706;BME280;11014;53.076;18.208;2023-05-01T04:31:54;101946.38;;;2.80;62.94
21706;BME280;11014;53.076;18.208;2023-05-01T04:34:23;101942.16;;;2.87;62.94
21706;BME280;11014;53.076;18.208;2023-05-01T04:36:52;101940.41;;;2.95;63.25
21706;BME280;11014;53.076;18.208;2023-05-01T04:39:20;101946.66;;;3.04;63.36
21706;BME280;11014;53.076;18.208;2023-05-01T04:41:51;101932.50;;;3.13;63.41
21706;BME280;11014;53.076;18.208;2023-05-01T04:44:21;101935.22;;;3.21;63.29
21706;BME280;11014;53.076;18.208;2023-05-01T04:46:50;101944.97;;;3.30;63.75
21706;BME280;11014;53.076;18.208;2023-05-01T04:49:20;101942.09;;;3.41;63.73
21706;BME280;11014;53.076;18.208;2023-05-01T04:51:49;101940.31;;;3.50;63.41
21706;BME280;11014;53.076;18.208;2023-05-01T04:54:18;101937.66;;;3.68;63.48
21706;BME280;11014;53.076;18.208;2023-05-01T04:56:47;101931.84;;;3.90;63.43
21706;BME280;11014;53.076;18.208;2023-05-01T04:59:16;101929.66;;;4.11;62.91
21706;BME280;11014;53.076;18.208;2023-05-01T05:01:47;101927.75;;;4.29;62.64
21706;BME280;11014;53.076;18.208;2023-05-01T05:04:16;101931.84;;;4.41;62.43
21706;BME280;11014;53.076;18.208;2023-05-01T05:06:45;101923.25;;;4.55;62.73
21706;BME280;11014;53.076;18.208;2023-05-01T05:09:22;101925.31;;;4.69;62.46
21706;BME280;11014;53.076;18.208;2023-05-01T05:11:52;101922.38;;;4.81;62.61
21706;BME280;11014;53.076;18.208;2023-05-01T05:14:22;101918.75;;;4.98;62.59
21706;BME280;11014;53.076;18.208;2023-05-01T05:16:51;101919.13;;;5.11;63.05
21706;BME280;11014;53.076;18.208;2023-05-01T05:19:20;101921.81;;;5.27;62.96
21706;BME280;11014;53.076;18.208;2023-05-01T05:21:49;101915.00;;;5.41;63.15
21706;BME280;11014;53.076;18.208;2023-05-01T05:24:17;101911.50;;;5.56;63.08
21706;BME280;11014;53.076;18.208;2023-05-01T05:26:46;101915.16;;;5.71;63.00
21706;BME280;11014;53.076;18.208;2023-05-01T05:29:15;101910.03;;;5.86;63.13
21706;BME280;11014;53.076;18.208;2023-05-01T05:31:45;101921.16;;;5.81;63.44
21706;BME280;11014;53.076;18.208;2023-05-01T05:34:15;101919.16;;;6.00;63.64
21706;BME280;11014;53.076;18.208;2023-05-01T05:36:44;101908.44;;;6.24;63.47
21706;BME280;11014;53.076;18.208;2023-05-01T05:39:14;101915.06;;;6.44;63.35
21706;BME280;11014;53.076;18.208;2023-05-01T05:41:46;101911.34;;;6.61;63.49
21706;BME280;11014;53.076;18.208;2023-05-01T05:44:16;101908.94;;;6.74;63.13
21706;BME280;11014;53.076;18.208;2023-05-01T05:46:45;101902.69;;;6.90;63.04
21706;BME280;11014;53.076;18.208;2023-05-01T05:49:20;101894.75;;;7.04;63.38
21706;BME280;11014;53.076;18.208;2023-05-01T05:51:50;101908.00;;;7.21;63.19
21706;BME280;11014;53.076;18.208;2023-05-01T05:54:18;101906.56;;;7.33;62.79
21706;BME280;11014;53.076;18.208;2023-05-01T05:56:49;101904.81;;;7.48;63.04
21706;BME280;11014;53.076;18.208;2023-05-01T05:59:18;101904.31;;;7.67;62.76
21706;BME280;11014;53.076;18.208;2023-05-01T06:01:47;101900.84;;;7.81;62.60
21706;BME280;11014;53.076;18.208;2023-05-01T06:04:15;101904.38;;;7.96;62.38
21706;BME280;11014;53.076;18.208;2023-05-01T06:06:45;101912.44;;;8.11;62.24
21706;BME280;11014;53.076;18.208;2023-05-01T06:09:14;101911.41;;;8.26;61.97
21706;BME280;11014;53.076;18.208;2023-05-01T06:11:45;101907.94;;;8.41;61.86
21706;BME280;11014;53.076;18.208;2023-05-01T06:14:15;101907.13;;;8.55;61.50
21706;BME280;11014;53.076;18.208;2023-05-01T06:16:45;101905.06;;;8.71;60.88
21706;BME280;11014;53.076;18.208;2023-05-01T06:19:14;101914.75;;;8.87;60.32
21706;BME280;11014;53.076;18.208;2023-05-01T06:21:44;101912.47;;;9.05;59.74
21706;BME280;11014;53.076;18.208;2023-05-01T06:24:14;101900.88;;;9.19;59.25
21706;BME280;11014;53.076;18.208;2023-05-01T06:26:47;101905.81;;;9.37;58.40
21706;BME280;11014;53.076;18.208;2023-05-01T06:29:16;101906.81;;;9.57;57.80
21706;BME280;11014;53.076;18.208;2023-05-01T06:31:47;101904.09;;;9.78;56.99
21706;BME280;11014;53.076;18.208;2023-05-01T06:34:16;101901.56;;;9.98;55.78
21706;BME280;11014;53.076;18.208;2023-05-01T06:36:56;101908.97;;;10.17;55.34
21706;BME280;11014;53.076;18.208;2023-05-01T06:39:38;101897.53;;;10.36;54.70
21706;BME280;11014;53.076;18.208;2023-05-01T06:42:13;101903.84;;;10.56;53.89
21706;BME280;11014;53.076;18.208;2023-05-01T06:44:44;101897.69;;;10.69;53.59
21706;BME280;11014;53.076;18.208;2023-05-01T06:47:14;101901.88;;;10.85;53.48
21706;BME280;11014;53.076;18.208;2023-05-01T06:49:44;101896.19;;;11.01;53.32
21706;BME280;11014;53.076;18.208;2023-05-01T06:52:15;101885.84;;;11.11;53.08
21706;BME280;11014;53.076;18.208;2023-05-01T06:54:43;101889.59;;;11.23;53.20
21706;BME280;11014;53.076;18.208;2023-05-01T06:57:13;101885.06;;;11.37;53.06
21706;BME280;11014;53.076;18.208;2023-05-01T06:59:41;101883.84;;;11.52;52.84
21706;BME280;11014;53.076;18.208;2023-05-01T07:02:10;101887.97;;;11.61;51.20
21706;BME280;11014;53.076;18.208;2023-05-01T07:04:38;101872.69;;;11.75;50.96
21706;BME280;11014;53.076;18.208;2023-05-01T07:07:07;101875.59;;;11.86;50.30
21706;BME280;11014;53.076;18.208;2023-05-01T07:09:35;101881.81;;;11.94;49.66
21706;BME280;11014;53.076;18.208;2023-05-01T07:12:05;101876.81;;;12.04;49.76
21706;BME280;11014;53.076;18.208;2023-05-01T07:15:23;101865.59;;;12.20;48.72
21706;BME280;11014;53.076;18.208;2023-05-01T07:17:53;101869.91;;;12.34;48.74
21706;BME280;11014;53.076;18.208;2023-05-01T07:20:26;101866.34;;;12.46;48.67
21706;BME280;11014;53.076;18.208;2023-05-01T07:23:06;101864.84;;;12.57;49.20
21706;BME280;11014;53.076;18.208;2023-05-01T07:25:38;101858.69;;;12.88;49.09
21706;BME280;11014;53.076;18.208;2023-05-01T07:28:11;101867.44;;;12.83;48.98
21706;BME280;11014;53.076;18.208;2023-05-01T07:30:42;101867.63;;;12.88;48.70
21706;BME280;11014;53.076;18.208;2023-05-01T07:33:11;101872.94;;;13.01;47.22
21706;BME280;11014;53.076;18.208;2023-05-01T07:35:40;101870.19;;;13.15;46.28
21706;BME280;11014;53.076;18.208;2023-05-01T07:38:09;101859.78;;;13.25;45.20
21706;BME280;11014;53.076;18.208;2023-05-01T07:40:51;101867.94;;;13.43;43.77
21706;BME280;11014;53.076;18.208;2023-05-01T07:43:20;101868.91;;;13.55;41.79
21706;BME280;11014;53.076;18.208;2023-05-01T07:46:01;101864.13;;;13.75;42.52
21706;BME280;11014;53.076;18.208;2023-05-01T07:48:30;101854.91;;;13.83;42.15
21706;BME280;11014;53.076;18.208;2023-05-01T07:51:01;101862.09;;;13.95;42.42
21706;BME280;11014;53.076;18.208;2023-05-01T07:53:31;101857.81;;;14.06;42.61
21706;BME280;11014;53.076;18.208;2023-05-01T07:56:04;101856.41;;;14.21;41.81
21706;BME280;11014;53.076;18.208;2023-05-01T08:03:09;101854.72;;;14.45;41.17
21706;BME280;11014;53.076;18.208;2023-05-01T08:05:44;101849.53;;;14.44;40.43
21706;BME280;11014;53.076;18.208;2023-05-01T08:08:55;101847.28;;;14.59;41.64
21706;BME280;11014;53.076;18.208;2023-05-01T08:11:25;101843.44;;;14.66;41.56
21706;BME280;11014;53.076;18.208;2023-05-01T08:14:03;101847.72;;;14.74;40.64
21706;BME280;11014;53.076;18.208;2023-05-01T08:16:33;101842.34;;;14.86;39.78
21706;BME280;11014;53.076;18.208;2023-05-01T08:19:34;101846.00;;;15.21;39.76
21706;BME280;11014;53.076;18.208;2023-05-01T08:22:02;101840.34;;;15.11;39.87
21706;BME280;11014;53.076;18.208;2023-05-01T08:24:31;101840.81;;;15.19;38.96
21706;BME280;11014;53.076;18.208;2023-05-01T08:26:59;101835.53;;;15.24;38.57
21706;BME280;11014;53.076;18.208;2023-05-01T08:29:28;101823.19;;;15.28;38.28
21706;BME280;11014;53.076;18.208;2023-05-01T08:31:58;101826.50;;;15.42;38.79
21706;BME280;11014;53.076;18.208;2023-05-01T08:34:36;101820.56;;;15.52;37.89
21706;BME280;11014;53.076;18.208;2023-05-01T08:37:04;101832.91;;;15.59;37.04
21706;BME280;11014;53.076;18.208;2023-05-01T08:39:36;101821.03;;;15.72;36.66
21706;BME280;11014;53.076;18.208;2023-05-01T08:42:11;101819.16;;;15.84;36.46
21706;BME280;11014;53.076;18.208;2023-05-01T08:44:41;101820.56;;;15.98;35.81
21706;BME280;11014;53.076;18.208;2023-05-01T08:47:17;101821.72;;;16.14;35.61
21706;BME280;11014;53.076;18.208;2023-05-01T08:49:47;101810.41;;;16.17;35.57
21706;BME280;11014;53.076;18.208;2023-05-01T08:52:19;101810.59;;;16.27;35.51
21706;BME280;11014;53.076;18.208;2023-05-01T08:54:51;101805.16;;;16.38;34.09
21706;BME280;11014;53.076;18.208;2023-05-01T08:57:28;101802.06;;;16.46;34.77
21706;BME280;11014;53.076;18.208;2023-05-01T08:59:59;101802.16;;;16.51;35.07
21706;BME280;11014;53.076;18.208;2023-05-01T09:02:30;101803.97;;;16.57;33.93
21706;BME280;11014;53.076;18.208;2023-05-01T09:05:05;101791.31;;;16.63;33.33
21706;BME280;11014;53.076;18.208;2023-05-01T09:07:35;101794.00;;;16.75;33.44
21706;BME280;11014;53.076;18.208;2023-05-01T09:10:06;101792.50;;;16.84;33.27
21706;BME280;11014;53.076;18.208;2023-05-01T09:12:35;101793.78;;;16.93;32.66
21706;BME280;11014;53.076;18.208;2023-05-01T09:15:05;101784.75;;;17.04;35.75
21706;BME280;11014;53.076;18.208;2023-05-01T09:17:36;101790.41;;;17.19;33.35
21706;BME280;11014;53.076;18.208;2023-05-01T09:20:06;101785.06;;;17.24;32.89
21706;BME280;11014;53.076;18.208;2023-05-01T09:22:34;101786.81;;;17.30;32.62
21706;BME280;11014;53.076;18.208;2023-05-01T09:25:04;101784.16;;;17.35;33.68
21706;BME280;11014;53.076;18.208;2023-05-01T09:27:35;101779.75;;;17.46;33.83
21706;BME280;11014;53.076;18.208;2023-05-01T09:30:09;101779.94;;;17.56;33.22
21706;BME280;11014;53.076;18.208;2023-05-01T09:35:51;101770.03;;;17.66;32.49
21706;BME280;11014;53.076;18.208;2023-05-01T09:38:24;101756.69;;;17.65;31.61
21706;BME280;11014;53.076;18.208;2023-05-01T09:40:55;101753.22;;;17.69;31.24
21706;BME280;11014;53.076;18.208;2023-05-01T09:43:30;101746.31;;;17.79;32.08
21706;BME280;11014;53.076;18.208;2023-05-01T09:46:09;101745.72;;;17.76;30.54
21706;BME280;11014;53.076;18.208;2023-05-01T09:48:57;101747.88;;;17.96;29.96
21706;BME280;11014;53.076;18.208;2023-05-01T09:51:33;101739.84;;;17.85;28.73
21706;BME280;11014;53.076;18.208;2023-05-01T09:54:18;101737.28;;;17.95;28.51
21706;BME280;11014;53.076;18.208;2023-05-01T09:56:49;101730.25;;;17.99;29.21
21706;BME280;11014;53.076;18.208;2023-05-01T09:59:21;101733.06;;;18.09;28.92
21706;BME280;11014;53.076;18.208;2023-05-01T10:01:50;101730.69;;;18.12;28.65
21706;BME280;11014;53.076;18.208;2023-05-01T10:04:29;101718.91;;;18.28;28.91
21706;BME280;11014;53.076;18.208;2023-05-01T10:07:10;101720.72;;;18.45;29.01
21706;BME280;11014;53.076;18.208;2023-05-01T10:09:44;101724.34;;;18.50;28.86
21706;BME280;11014;53.076;18.208;2023-05-01T10:12:25;101722.25;;;18.57;28.39
21706;BME280;11014;53.076;18.208;2023-05-01T10:15:16;101712.59;;;18.71;29.91
21706;BME280;11014;53.076;18.208;2023-05-01T10:17:56;101717.97;;;18.93;32.45
21706;BME280;11014;53.076;18.208;2023-05-01T10:20:24;101713.47;;;19.09;33.13
21706;BME280;11014;53.076;18.208;2023-05-01T10:22:55;101700.78;;;19.24;30.37
21706;BME280;11014;53.076;18.208;2023-05-01T10:25:28;101710.91;;;19.29;30.24
21706;BME280;11014;53.076;18.208;2023-05-01T10:30:56;101711.31;;;19.47;29.29
21706;BME280;11014;53.076;18.208;2023-05-01T10:33:35;101705.34;;;19.50;29.20
21706;BME280;11014;53.076;18.208;2023-05-01T10:36:10;101693.91;;;19.53;28.21
21706;BME280;11014;53.076;18.208;2023-05-01T10:38:40;101699.69;;;19.67;30.35
21706;BME280;11014;53.076;18.208;2023-05-01T10:41:14;101697.59;;;19.79;27.90
21706;BME280;11014;53.076;18.208;2023-05-01T10:43:44;101698.78;;;20.03;27.35
21706;BME280;11014;53.076;18.208;2023-05-01T10:51:23;101684.56;;;19.91;27.49
21706;BME280;11014;53.076;18.208;2023-05-01T10:56:40;101677.50;;;20.05;29.03
21706;BME280;11014;53.076;18.208;2023-05-01T10:59:10;101678.38;;;20.16;29.70
21706;BME280;11014;53.076;18.208;2023-05-01T11:01:41;101675.38;;;20.23;28.15
21706;BME280;11014;53.076;18.208;2023-05-01T11:09:41;101659.38;;;20.77;29.72
21706;BME280;11014;53.076;18.208;2023-05-01T11:12:15;101664.84;;;20.92;29.43
21706;BME280;11014;53.076;18.208;2023-05-01T11:15:04;101660.22;;;20.97;28.34
21706;BME280;11014;53.076;18.208;2023-05-01T11:20:11;101659.38;;;21.07;27.18
21706;BME280;11014;53.076;18.208;2023-05-01T11:22:44;101653.66;;;21.13;29.59
21706;BME280;11014;53.076;18.208;2023-05-01T11:25:20;101644.06;;;21.21;27.32
21706;BME280;11014;53.076;18.208;2023-05-01T11:27:50;101651.44;;;21.31;29.31
21706;BME280;11014;53.076;18.208;2023-05-01T11:30:20;101645.94;;;21.41;28.59
21706;BME280;11014;53.076;18.208;2023-05-01T11:32:49;101641.00;;;21.48;26.88
21706;BME280;11014;53.076;18.208;2023-05-01T11:35:23;101643.72;;;21.48;28.63
21706;BME280;11014;53.076;18.208;2023-05-01T11:37:53;101638.25;;;21.58;27.62
21706;BME280;11014;53.076;18.208;2023-05-01T11:40:26;101631.94;;;21.57;26.92
21706;BME280;11014;53.076;18.208;2023-05-01T11:43:00;101625.72;;;21.42;25.64
21706;BME280;11014;53.076;18.208;2023-05-01T11:45:30;101629.25;;;21.42;26.46
21706;BME280;11014;53.076;18.208;2023-05-01T11:47:59;101622.44;;;21.35;26.61
21706;BME280;11014;53.076;18.208;2023-05-01T11:50:33;101621.34;;;21.41;26.81
21706;BME280;11014;53.076;18.208;2023-05-01T11:53:09;101607.38;;;21.52;26.35
21706;BME280;11014;53.076;18.208;2023-05-01T11:55:44;101610.25;;;21.91;25.93
21706;BME280;11014;53.076;18.208;2023-05-01T11:58:13;101601.56;;;21.69;26.04
21706;BME280;11014;53.076;18.208;2023-05-01T12:00:42;101611.91;;;21.77;28.07
21706;BME280;11014;53.076;18.208;2023-05-01T12:03:12;101606.94;;;21.89;26.04
21706;BME280;11014;53.076;18.208;2023-05-01T12:05:43;101603.13;;;21.90;27.43
21706;BME280;11014;53.076;18.208;2023-05-01T12:08:14;101588.28;;;22.01;29.07
21706;BME280;11014;53.076;18.208;2023-05-01T12:10:54;101584.81;;;22.24;27.17
21706;BME280;11014;53.076;18.208;2023-05-01T12:13:25;101592.56;;;22.51;26.67
21706;BME280;11014;53.076;18.208;2023-05-01T12:15:55;101581.75;;;22.70;27.38
21706;BME280;11014;53.076;18.208;2023-05-01T12:18:24;101586.78;;;23.39;25.68
21706;BME280;11014;53.076;18.208;2023-05-01T12:20:53;101582.03;;;24.61;25.72
21706;BME280;11014;53.076;18.208;2023-05-01T12:26:44;101559.59;;;27.89;20.80
21706;BME280;11014;53.076;18.208;2023-05-01T12:29:38;101552.75;;;29.10;21.41
21706;BME280;11014;53.076;18.208;2023-05-01T12:32:56;101557.97;;;30.65;19.87
21706;BME280;11014;53.076;18.208;2023-05-01T12:35:28;101552.47;;;31.74;19.65
21706;BME280;11014;53.076;18.208;2023-05-01T12:37:58;101530.78;;;33.06;19.01
21706;BME280;11014;53.076;18.208;2023-05-01T12:40:26;101522.13;;;34.15;17.68
21706;BME280;11014;53.076;18.208;2023-05-01T12:42:56;101514.84;;;35.21;16.75
21706;BME280;11014;53.076;18.208;2023-05-01T12:45:25;101513.22;;;35.72;14.98
21706;BME280;11014;53.076;18.208;2023-05-01T12:47:53;101507.53;;;36.32;17.13
21706;BME280;11014;53.076;18.208;2023-05-01T12:50:22;101499.47;;;37.07;16.24
21706;BME280;11014;53.076;18.208;2023-05-01T12:52:50;101496.16;;;37.53;14.33
21706;BME280;11014;53.076;18.208;2023-05-01T12:55:19;101507.19;;;37.24;14.31
21706;BME280;11014;53.076;18.208;2023-05-01T12:57:52;101504.06;;;37.36;14.37
21706;BME280;11014;53.076;18.208;2023-05-01T13:00:22;101499.38;;;37.55;14.21
21706;BME280;11014;53.076;18.208;2023-05-01T13:02:50;101494.41;;;38.03;13.45
21706;BME280;11014;53.076;18.208;2023-05-01T13:05:19;101484.50;;;38.44;12.96
21706;BME280;11014;53.076;18.208;2023-05-01T13:07:48;101481.28;;;38.95;12.70
21706;BME280;11014;53.076;18.208;2023-05-01T13:10:28;101473.66;;;38.99;12.45
21706;BME280;11014;53.076;18.208;2023-05-01T13:13:23;101470.06;;;38.88;12.66
21706;BME280;11014;53.076;18.208;2023-05-01T13:15:52;101456.81;;;38.71;12.38
21706;BME280;11014;53.076;18.208;2023-05-01T13:18:21;101453.22;;;38.52;11.87
21706;BME280;11014;53.076;18.208;2023-05-01T13:20:49;101451.59;;;38.66;11.89
21706;BME280;11014;53.076;18.208;2023-05-01T13:23:18;101459.63;;;38.35;11.15
21706;BME280;11014;53.076;18.208;2023-05-01T13:25:46;101448.22;;;37.79;11.61
21706;BME280;11014;53.076;18.208;2023-05-01T13:28:17;101437.88;;;38.04;12.16
21706;BME280;11014;53.076;18.208;2023-05-01T13:30:48;101437.56;;;38.55;11.95
21706;BME280;11014;53.076;18.208;2023-05-01T13:33:17;101439.56;;;38.76;11.83
21706;BME280;11014;53.076;18.208;2023-05-01T13:35:46;101432.31;;;39.03;12.73
21706;BME280;11014;53.076;18.208;2023-05-01T13:38:14;101433.41;;;39.41;10.98
21706;BME280;11014;53.076;18.208;2023-05-01T13:40:43;101433.09;;;39.14;11.19
21706;BME280;11014;53.076;18.208;2023-05-01T13:43:13;101428.31;;;38.83;11.27
21706;BME280;11014;53.076;18.208;2023-05-01T13:45:43;101421.06;;;39.03;11.62
21706;BME280;11014;53.076;18.208;2023-05-01T13:48:16;101425.88;;;38.00;10.78